sensor_id;sensor_type;location;lat;lon;timestamp;temperature;humidity
57026;DHT22;43961;52.940;6.834;2023-12-07T00:02:04;2.00;99.90
57026;DHT22;43961;52.940;6.834;2023-12-07T00:04:29;1.90;99.90
57026;DHT22;43961;52.940;6.834;2023-12-07T00:06:55;2.00;99.90
57026;DHT22;43961;52.940;6.834;2023-12-07T00:09:20;1.90;99.90
57026;DHT22;43961;52.940;6.834;2023-12-07T00:11:46;2.00;99.90
57026;DHT22;43961;52.940;6.834;2023-12-07T00:14:12;1.90;99.90
57026;DHT22;43961;52.940;6.834;2023-12-07T00:16:37;1.90;99.90
57026;DHT22;43961;52.940;6.834;2023-12-07T00:19:03;1.90;99.90
57026;DHT22;43961;52.940;6.834;2023-12-07T00:21:29;1.90;99.90
57026;DHT22;43961;52.940;6.834;2023-12-07T00:23:54;1.90;99.90
57026;DHT22;43961;52.940;6.834;2023-12-07T00:26:20;1.90;99.90
57026;DHT22;43961;52.940;6.834;2023-12-07T00:28:45;1.90;99.90
57026;DHT22;43961;52.940;6.834;2023-12-07T00:31:11;1.90;99.90
57026;DHT22;43961;52.940;6.834;2023-12-07T00:33:37;1.90;99.90
57026;DHT22;43961;52.940;6.834;2023-12-07T00:36:04;1.80;99.90
57026;DHT22;43961;52.940;6.834;2023-12-07T00:38:29;1.90;99.90
57026;DHT22;43961;52.940;6.834;2023-12-07T00:40:57;1.80;99.90
57026;DHT22;43961;52.940;6.834;2023-12-07T00:43:23;1.80;99.90
57026;DHT22;43961;52.940;6.834;2023-12-07T00:45:49;1.90;99.90
57026;DHT22;43961;52.940;6.834;2023-12-07T00:48:14;1.80;99.90
57026;DHT22;43961;52.940;6.834;2023-12-07T00:50:40;1.80;99.90
57026;DHT22;43961;52.940;6.834;2023-12-07T00:53:05;1.80;99.90
57026;DHT22;43961;52.940;6.834;2023-12-07T00:55:31;1.80;99.90
57026;DHT22;43961;52.940;6.834;2023-12-07T00:57:56;1.80;99.90
57026;DHT22;43961;52.940;6.834;2023-12-07T01:00:22;1.80;99.90
57026;DHT22;43961;52.940;6.834;2023-12-07T01:02:48;1.80;99.90
57026;DHT22;43961;52.940;6.834;2023-12-07T01:05:13;1.80;99.90
57026;DHT22;43961;52.940;6.834;2023-12-07T01:07:39;1.80;99.90
57026;DHT22;43961;52.940;6.834;2023-12-07T01:10:05;1.80;99.90
57026;DHT22;43961;52.940;6.834;2023-12-07T01:12:31;1.80;99.90
57026;DHT22;43961;52.940;6.834;2023-12-07T01:14:56;1.80;99.90
57026;DHT22;43961;52.940;6.834;2023-12-07T01:17:22;1.80;99.90
57026;DHT22;43961;52.940;6.834;2023-12-07T01:19:48;1.80;99.90
57026;DHT22;43961;52.940;6.834;2023-12-07T01:22:13;1.80;99.90
57026;DHT22;43961;52.940;6.834;2023-12-07T01:24:39;1.80;99.90
57026;DHT22;43961;52.940;6.834;2023-12-07T01:27:05;1.80;99.90
57026;DHT22;43961;52.940;6.834;2023-12-07T01:29:30;1.80;99.90
57026;DHT22;43961;52.940;6.834;2023-12-07T01:31:56;1.80;99.90
57026;DHT22;43961;52.940;6.834;2023-12-07T01:34:21;1.80;99.90
57026;DHT22;43961;52.940;6.834;2023-12-07T01:36:47;1.80;99.90
57026;DHT22;43961;52.940;6.834;2023-12-07T01:39:13;1.80;99.90
57026;DHT22;43961;52.940;6.834;2023-12-07T01:41:39;1.80;99.90
57026;DHT22;43961;52.940;6.834;2023-12-07T01:44:05;1.80;99.90
57026;DHT22;43961;52.940;6.834;2023-12-07T01:46:32;1.80;99.90
57026;DHT22;43961;52.940;6.834;2023-12-07T01:48:59;1.80;99.90
57026;DHT22;43961;52.940;6.834;2023-12-07T01:51:25;1.80;99.90
57026;DHT22;43961;52.940;6.834;2023-12-07T01:53:52;1.80;99.90
57026;DHT22;43961;52.940;6.834;2023-12-07T01:56:18;1.80;99.90
57026;DHT22;43961;52.940;6.834;2023-12-07T01:58:43;1.80;99.90
57026;DHT22;43961;52.940;6.834;2023-12-07T02:01:09;1.80;99.90
57026;DHT22;43961;52.940;6.834;2023-12-07T02:03:39;1.80;99.90
57026;DHT22;43961;52.940;6.834;2023-12-07T02:06:05;1.80;99.90
57026;DHT22;43961;52.940;6.834;2023-12-07T02:08:31;1.80;99.90
57026;DHT22;43961;52.940;6.834;2023-12-07T02:10:56;1.80;99.90
57026;DHT22;43961;52.940;6.834;2023-12-07T02:13:22;1.80;99.90
57026;DHT22;43961;52.940;6.834;2023-12-07T02:15:48;1.80;99.90
57026;DHT22;43961;52.940;6.834;2023-12-07T02:18:51;1.80;99.90
57026;DHT22;43961;52.940;6.834;2023-12-07T02:21:20;1.80;99.90
57026;DHT22;43961;52.940;6.834;2023-12-07T02:23:47;1.80;99.90
57026;DHT22;43961;52.940;6.834;2023-12-07T02:26:17;1.80;99.90
57026;DHT22;43961;52.940;6.834;2023-12-07T02:28:43;1.80;99.90
57026;DHT22;43961;52.940;6.834;2023-12-07T02:31:09;1.90;99.90
57026;DHT22;43961;52.940;6.834;2023-12-07T02:33:35;1.80;99.90
57026;DHT22;43961;52.940;6.834;2023-12-07T02:36:01;1.80;99.90
57026;DHT22;43961;52.940;6.834;2023-12-07T02:38:26;1.90;99.90
57026;DHT22;43961;52.940;6.834;2023-12-07T02:40:54;1.80;99.90
57026;DHT22;43961;52.940;6.834;2023-12-07T02:43:21;1.80;99.90
57026;DHT22;43961;52.940;6.834;2023-12-07T02:45:48;1.90;99.90
57026;DHT22;43961;52.940;6.834;2023-12-07T02:48:13;1.80;99.90
57026;DHT22;43961;52.940;6.834;2023-12-07T02:50:39;1.80;99.90
57026;DHT22;43961;52.940;6.834;2023-12-07T02:53:05;1.80;99.90
57026;DHT22;43961;52.940;6.834;2023-12-07T02:55:30;1.80;99.90
57026;DHT22;43961;52.940;6.834;2023-12-07T02:57:56;1.80;99.90
57026;DHT22;43961;52.940;6.834;2023-12-07T03:00:21;1.80;99.90
57026;DHT22;43961;52.940;6.834;2023-12-07T03:02:47;1.80;99.90
57026;DHT22;43961;52.940;6.834;2023-12-07T03:05:13;1.80;99.90
57026;DHT22;43961;52.940;6.834;2023-12-07T03:07:39;1.80;99.90
57026;DHT22;43961;52.940;6.834;2023-12-07T03:10:05;1.80;99.90
57026;DHT22;43961;52.940;6.834;2023-12-07T03:12:31;1.80;99.90
57026;DHT22;43961;52.940;6.834;2023-12-07T03:14:56;1.80;99.90
57026;DHT22;43961;52.940;6.834;2023-12-07T03:17:22;1.70;99.90
57026;DHT22;43961;52.940;6.834;2023-12-07T03:19:47;1.70;99.90
57026;DHT22;43961;52.940;6.834;2023-12-07T03:22:13;1.70;99.90
57026;DHT22;43961;52.940;6.834;2023-12-07T03:24:39;1.70;99.90
57026;DHT22;43961;52.940;6.834;2023-12-07T03:27:05;1.70;99.90
57026;DHT22;43961;52.940;6.834;2023-12-07T03:29:32;1.70;99.90
57026;DHT22;43961;52.940;6.834;2023-12-07T03:31:57;1.70;99.90
57026;DHT22;43961;52.940;6.834;2023-12-07T03:34:24;1.70;99.90
57026;DHT22;43961;52.940;6.834;2023-12-07T03:36:49;1.80;99.90
57026;DHT22;43961;52.940;6.834;2023-12-07T03:39:16;1.70;99.90
57026;DHT22;43961;52.940;6.834;2023-12-07T03:41:44;1.70;99.90
57026;DHT22;43961;52.940;6.834;2023-12-07T03:44:09;1.70;99.90
57026;DHT22;43961;52.940;6.834;2023-12-07T03:46:35;1.70;99.90
57026;DHT22;43961;52.940;6.834;2023-12-07T03:49:01;1.70;99.90
57026;DHT22;43961;52.940;6.834;2023-12-07T03:51:27;1.70;99.90
57026;DHT22;43961;52.940;6.834;2023-12-07T03:53:56;1.70;99.90
57026;DHT22;43961;52.940;6.834;2023-12-07T03:56:25;1.70;99.90
57026;DHT22;43961;52.940;6.834;2023-12-07T03:58:51;1.70;99.90
57026;DHT22;43961;52.940;6.834;2023-12-07T04:01:17;1.70;99.90
57026;DHT22;43961;52.940;6.834;2023-12-07T04:03:43;1.60;99.90
57026;DHT22;43961;52.940;6.834;2023-12-07T04:06:08;1.60;99.90
57026;DHT22;43961;52.940;6.834;2023-12-07T04:08:34;1.60;99.90
57026;DHT22;43961;52.940;6.834;2023-12-07T04:11:00;1.60;99.90
57026;DHT22;43961;52.940;6.834;2023-12-07T04:13:25;1.60;99.90
57026;DHT22;43961;52.940;6.834;2023-12-07T04:15:51;1.60;99.90
57026;DHT22;43961;52.940;6.834;2023-12-07T04:18:17;1.60;99.90
57026;DHT22;43961;52.940;6.834;2023-12-07T04:20:43;1.60;99.90
57026;DHT22;43961;52.940;6.834;2023-12-07T04:23:09;1.60;99.90
57026;DHT22;43961;52.940;6.834;2023-12-07T04:25:34;1.60;99.90
57026;DHT22;43961;52.940;6.834;2023-12-07T04:28:00;1.60;99.90
57026;DHT22;43961;52.940;6.834;2023-12-07T04:30:25;1.60;99.90
57026;DHT22;43961;52.940;6.834;2023-12-07T04:32:51;1.50;99.90
57026;DHT22;43961;52.940;6.834;2023-12-07T04:35:16;1.50;99.90
57026;DHT22;43961;52.940;6.834;2023-12-07T04:37:42;1.50;99.90
57026;DHT22;43961;52.940;6.834;2023-12-07T04:40:08;1.50;99.90
57026;DHT22;43961;52.940;6.834;2023-12-07T04:42:36;1.40;99.90
57026;DHT22;43961;52.940;6.834;2023-12-07T04:45:01;1.40;99.90
57026;DHT22;43961;52.940;6.834;2023-12-07T04:47:27;1.40;99.90
57026;DHT22;43961;52.940;6.834;2023-12-07T04:49:53;1.40;99.90
57026;DHT22;43961;52.940;6.834;2023-12-07T04:52:18;1.40;99.90
57026;DHT22;43961;52.940;6.834;2023-12-07T04:54:44;1.30;99.90
57026;DHT22;43961;52.940;6.834;2023-12-07T04:57:10;1.30;99.90
57026;DHT22;43961;52.940;6.834;2023-12-07T04:59:35;1.30;99.90
57026;DHT22;43961;52.940;6.834;2023-12-07T05:02:01;1.30;99.90
57026;DHT22;43961;52.940;6.834;2023-12-07T05:04:27;1.20;99.90
57026;DHT22;43961;52.940;6.834;2023-12-07T05:06:53;1.30;99.90
57026;DHT22;43961;52.940;6.834;2023-12-07T05:09:18;1.20;99.90
57026;DHT22;43961;52.940;6.834;2023-12-07T05:11:44;1.20;99.90
57026;DHT22;43961;52.940;6.834;2023-12-07T05:14:11;1.20;99.90
57026;DHT22;43961;52.940;6.834;2023-12-07T05:16:36;1.20;99.90
57026;DHT22;43961;52.940;6.834;2023-12-07T05:19:02;1.20;99.90
57026;DHT22;43961;52.940;6.834;2023-12-07T05:21:28;1.10;99.90
57026;DHT22;43961;52.940;6.834;2023-12-07T05:23:53;1.10;99.90
57026;DHT22;43961;52.940;6.834;2023-12-07T05:26:19;1.10;99.90
57026;DHT22;43961;52.940;6.834;2023-12-07T05:28:46;1.10;99.90
57026;DHT22;43961;52.940;6.834;2023-12-07T05:31:18;1.10;99.90
57026;DHT22;43961;52.940;6.834;2023-12-07T05:33:44;1.10;99.90
57026;DHT22;43961;52.940;6.834;2023-12-07T05:36:10;1.10;99.90
57026;DHT22;43961;52.940;6.834;2023-12-07T05:38:35;1.10;99.90
57026;DHT22;43961;52.940;6.834;2023-12-07T05:41:01;1.10;99.90
57026;DHT22;43961;52.940;6.834;2023-12-07T05:43:27;1.10;99.90
57026;DHT22;43961;52.940;6.834;2023-12-07T05:45:52;1.10;99.90
57026;DHT22;43961;52.940;6.834;2023-12-07T05:48:18;1.00;99.90
57026;DHT22;43961;52.940;6.834;2023-12-07T05:50:43;1.10;99.90
57026;DHT22;43961;52.940;6.834;2023-12-07T05:53:09;1.00;99.90
57026;DHT22;43961;52.940;6.834;2023-12-07T05:55:36;1.00;99.90
57026;DHT22;43961;52.940;6.834;2023-12-07T05:58:05;1.10;99.90
57026;DHT22;43961;52.940;6.834;2023-12-07T06:00:30;1.10;99.90
57026;DHT22;43961;52.940;6.834;2023-12-07T06:02:57;1.00;99.90
57026;DHT22;43961;52.940;6.834;2023-12-07T06:05:22;1.00;99.90
57026;DHT22;43961;52.940;6.834;2023-12-07T06:07:48;1.00;99.90
57026;DHT22;43961;52.940;6.834;2023-12-07T06:10:13;1.00;99.90
57026;DHT22;43961;52.940;6.834;2023-12-07T06:12:39;1.00;99.90
57026;DHT22;43961;52.940;6.834;2023-12-07T06:15:05;0.90;99.90
57026;DHT22;43961;52.940;6.834;2023-12-07T06:17:33;0.90;99.90
57026;DHT22;43961;52.940;6.834;2023-12-07T06:19:59;0.90;99.90
57026;DHT22;43961;52.940;6.834;2023-12-07T06:22:25;0.90;99.90
57026;DHT22;43961;52.940;6.834;2023-12-07T06:24:50;0.90;99.90
57026;DHT22;43961;52.940;6.834;2023-12-07T06:27:16;0.80;99.90
57026;DHT22;43961;52.940;6.834;2023-12-07T06:29:41;0.80;99.90
57026;DHT22;43961;52.940;6.834;2023-12-07T06:32:07;0.80;99.90
57026;DHT22;43961;52.940;6.834;2023-12-07T06:34:33;0.80;99.90
57026;DHT22;43961;52.940;6.834;2023-12-07T06:36:58;0.80;99.90
57026;DHT22;43961;52.940;6.834;2023-12-07T06:39:24;0.70;99.90
57026;DHT22;43961;52.940;6.834;2023-12-07T06:41:49;0.70;99.90
57026;DHT22;43961;52.940;6.834;2023-12-07T06:44:15;0.70;99.90
57026;DHT22;43961;52.940;6.834;2023-12-07T06:46:40;0.70;99.90
57026;DHT22;43961;52.940;6.834;2023-12-07T06:49:06;0.70;99.90
57026;DHT22;43961;52.940;6.834;2023-12-07T06:51:32;0.70;99.90
57026;DHT22;43961;52.940;6.834;2023-12-07T06:53:57;0.60;99.90
57026;DHT22;43961;52.940;6.834;2023-12-07T06:56:23;0.60;99.90
57026;DHT22;43961;52.940;6.834;2023-12-07T06:58:48;0.60;99.90
57026;DHT22;43961;52.940;6.834;2023-12-07T07:01:14;0.60;99.90
57026;DHT22;43961;52.940;6.834;2023-12-07T07:03:39;0.60;99.90
57026;DHT22;43961;52.940;6.834;2023-12-07T07:06:05;0.50;99.90
57026;DHT22;43961;52.940;6.834;2023-12-07T07:08:31;0.50;99.90
57026;DHT22;43961;52.940;6.834;2023-12-07T07:10:56;0.50;99.90
57026;DHT22;43961;52.940;6.834;2023-12-07T07:13:22;0.50;99.90
57026;DHT22;43961;52.940;6.834;2023-12-07T07:15:48;0.50;99.90
57026;DHT22;43961;52.940;6.834;2023-12-07T07:18:13;0.50;99.90
57026;DHT22;43961;52.940;6.834;2023-12-07T07:20:39;0.50;99.90
57026;DHT22;43961;52.940;6.834;2023-12-07T07:23:05;0.50;99.90
57026;DHT22;43961;52.940;6.834;2023-12-07T07:25:30;0.50;99.90
57026;DHT22;43961;52.940;6.834;2023-12-07T07:27:56;0.50;99.90
57026;DHT22;43961;52.940;6.834;2023-12-07T07:30:22;0.50;99.90
57026;DHT22;43961;52.940;6.834;2023-12-07T07:32:47;0.50;99.90
57026;DHT22;43961;52.940;6.834;2023-12-07T07:35:14;0.50;99.90
57026;DHT22;43961;52.940;6.834;2023-12-07T07:37:40;0.50;99.90
57026;DHT22;43961;52.940;6.834;2023-12-07T07:40:07;0.50;99.90
57026;DHT22;43961;52.940;6.834;2023-12-07T07:42:33;0.50;99.90
57026;DHT22;43961;52.940;6.834;2023-12-07T07:44:59;0.50;99.90
57026;DHT22;43961;52.940;6.834;2023-12-07T07:47:25;0.40;99.90
57026;DHT22;43961;52.940;6.834;2023-12-07T07:49:50;0.40;99.90
57026;DHT22;43961;52.940;6.834;2023-12-07T07:52:16;0.40;99.90
57026;DHT22;43961;52.940;6.834;2023-12-07T07:54:42;0.40;99.90
57026;DHT22;43961;52.940;6.834;2023-12-07T07:57:08;0.40;99.90
57026;DHT22;43961;52.940;6.834;2023-12-07T07:59:33;0.50;99.90
57026;DHT22;43961;52.940;6.834;2023-12-07T08:01:59;0.40;99.90
57026;DHT22;43961;52.940;6.834;2023-12-07T08:04:25;0.50;99.90
57026;DHT22;43961;52.940;6.834;2023-12-07T08:06:50;0.50;99.90
57026;DHT22;43961;52.940;6.834;2023-12-07T08:09:16;0.50;99.90
57026;DHT22;43961;52.940;6.834;2023-12-07T08:11:41;0.50;99.90
57026;DHT22;43961;52.940;6.834;2023-12-07T08:14:08;0.50;99.90
57026;DHT22;43961;52.940;6.834;2023-12-07T08:16:34;0.50;99.90
57026;DHT22;43961;52.940;6.834;2023-12-07T08:18:59;0.50;99.90
57026;DHT22;43961;52.940;6.834;2023-12-07T08:21:25;0.50;99.90
57026;DHT22;43961;52.940;6.834;2023-12-07T08:23:51;0.50;99.90
57026;DHT22;43961;52.940;6.834;2023-12-07T08:26:17;0.60;99.90
57026;DHT22;43961;52.940;6.834;2023-12-07T08:28:44;0.60;99.90
57026;DHT22;43961;52.940;6.834;2023-12-07T08:31:10;0.60;99.90
57026;DHT22;43961;52.940;6.834;2023-12-07T08:33:36;0.60;99.90
57026;DHT22;43961;52.940;6.834;2023-12-07T08:36:05;0.60;99.90
57026;DHT22;43961;52.940;6.834;2023-12-07T08:38:31;0.70;99.90
57026;DHT22;43961;52.940;6.834;2023-12-07T08:40:57;0.70;99.90
57026;DHT22;43961;52.940;6.834;2023-12-07T08:43:24;0.70;99.90
57026;DHT22;43961;52.940;6.834;2023-12-07T08:45:52;0.70;99.90
57026;DHT22;43961;52.940;6.834;2023-12-07T08:48:19;0.80;99.90
57026;DHT22;43961;52.940;6.834;2023-12-07T08:50:45;0.80;99.90
57026;DHT22;43961;52.940;6.834;2023-12-07T08:53:10;0.80;99.90
57026;DHT22;43961;52.940;6.834;2023-12-07T08:55:36;0.80;99.90
57026;DHT22;43961;52.940;6.834;2023-12-07T08:58:01;0.90;99.90
57026;DHT22;43961;52.940;6.834;2023-12-07T09:00:31;0.90;99.90
57026;DHT22;43961;52.940;6.834;2023-12-07T09:02:57;0.90;99.90
57026;DHT22;43961;52.940;6.834;2023-12-07T09:05:22;0.90;99.90
57026;DHT22;43961;52.940;6.834;2023-12-07T09:07:48;1.00;99.90
57026;DHT22;43961;52.940;6.834;2023-12-07T09:10:13;1.00;99.90
57026;DHT22;43961;52.940;6.834;2023-12-07T09:12:39;1.00;99.90
57026;DHT22;43961;52.940;6.834;2023-12-07T09:15:05;1.00;99.90
57026;DHT22;43961;52.940;6.834;2023-12-07T09:17:32;1.00;99.90
57026;DHT22;43961;52.940;6.834;2023-12-07T09:19:58;1.00;99.90
57026;DHT22;43961;52.940;6.834;2023-12-07T09:22:24;1.00;99.90
57026;DHT22;43961;52.940;6.834;2023-12-07T09:24:50;1.10;99.90
57026;DHT22;43961;52.940;6.834;2023-12-07T09:27:16;1.00;99.90
57026;DHT22;43961;52.940;6.834;2023-12-07T09:29:41;1.10;99.90
57026;DHT22;43961;52.940;6.834;2023-12-07T09:32:07;1.10;99.90
57026;DHT22;43961;52.940;6.834;2023-12-07T09:34:33;1.10;99.90
57026;DHT22;43961;52.940;6.834;2023-12-07T09:37:17;1.10;99.90
57026;DHT22;43961;52.940;6.834;2023-12-07T09:39:42;1.20;99.90
57026;DHT22;43961;52.940;6.834;2023-12-07T09:42:08;1.20;99.90
57026;DHT22;43961;52.940;6.834;2023-12-07T09:44:33;1.30;99.90
57026;DHT22;43961;52.940;6.834;2023-12-07T09:46:59;1.30;99.90
57026;DHT22;43961;52.940;6.834;2023-12-07T09:49:25;1.30;99.90
57026;DHT22;43961;52.940;6.834;2023-12-07T09:51:51;1.40;99.90
57026;DHT22;43961;52.940;6.834;2023-12-07T09:54:19;1.40;99.90
57026;DHT22;43961;52.940;6.834;2023-12-07T09:56:45;1.50;99.90
57026;DHT22;43961;52.940;6.834;2023-12-07T09:59:11;1.50;99.90
57026;DHT22;43961;52.940;6.834;2023-12-07T10:01:36;1.60;99.90
57026;DHT22;43961;52.940;6.834;2023-12-07T10:04:21;1.70;99.90
57026;DHT22;43961;52.940;6.834;2023-12-07T10:06:48;1.70;99.90
57026;DHT22;43961;52.940;6.834;2023-12-07T10:09:15;1.80;99.90
57026;DHT22;43961;52.940;6.834;2023-12-07T10:11:41;1.80;99.90
57026;DHT22;43961;52.940;6.834;2023-12-07T10:14:07;1.90;99.90
57026;DHT22;43961;52.940;6.834;2023-12-07T10:16:33;1.90;99.90
57026;DHT22;43961;52.940;6.834;2023-12-07T10:19:15;1.90;99.90
57026;DHT22;43961;52.940;6.834;2023-12-07T10:21:43;1.90;99.90
57026;DHT22;43961;52.940;6.834;2023-12-07T10:24:10;1.90;99.90
57026;DHT22;43961;52.940;6.834;2023-12-07T10:26:37;1.90;99.90
57026;DHT22;43961;52.940;6.834;2023-12-07T10:29:07;1.90;99.90
57026;DHT22;43961;52.940;6.834;2023-12-07T10:31:33;1.90;99.90
57026;DHT22;43961;52.940;6.834;2023-12-07T10:33:59;1.80;99.90
57026;DHT22;43961;52.940;6.834;2023-12-07T10:36:26;1.80;99.90
57026;DHT22;43961;52.940;6.834;2023-12-07T10:38:53;1.80;99.90
57026;DHT22;43961;52.940;6.834;2023-12-07T10:41:20;1.80;99.90
57026;DHT22;43961;52.940;6.834;2023-12-07T10:43:52;1.80;99.90
57026;DHT22;43961;52.940;6.834;2023-12-07T10:46:20;1.80;99.90
57026;DHT22;43961;52.940;6.834;2023-12-07T10:48:47;1.80;99.90
57026;DHT22;43961;52.940;6.834;2023-12-07T10:51:38;1.80;99.90
57026;DHT22;43961;52.940;6.834;2023-12-07T10:54:07;1.70;99.90
57026;DHT22;43961;52.940;6.834;2023-12-07T10:56:44;1.70;99.90
57026;DHT22;43961;52.940;6.834;2023-12-07T10:59:11;1.70;99.90
57026;DHT22;43961;52.940;6.834;2023-12-07T11:01:38;1.60;99.90
57026;DHT22;43961;52.940;6.834;2023-12-07T11:04:05;1.60;99.90
57026;DHT22;43961;52.940;6.834;2023-12-07T11:06:32;1.60;99.90
57026;DHT22;43961;52.940;6.834;2023-12-07T11:09:00;1.50;99.90
57026;DHT22;43961;52.940;6.834;2023-12-07T11:11:49;1.40;99.90
57026;DHT22;43961;52.940;6.834;2023-12-07T11:14:17;1.40;99.90
57026;DHT22;43961;52.940;6.834;2023-12-07T11:16:44;1.40;99.90
57026;DHT22;43961;52.940;6.834;2023-12-07T11:21:59;1.30;99.90
57026;DHT22;43961;52.940;6.834;2023-12-07T11:24:25;1.30;99.90
57026;DHT22;43961;52.940;6.834;2023-12-07T11:26:55;1.40;99.90
57026;DHT22;43961;52.940;6.834;2023-12-07T11:29:31;1.40;99.90
57026;DHT22;43961;52.940;6.834;2023-12-07T11:32:00;1.40;99.90
57026;DHT22;43961;52.940;6.834;2023-12-07T11:34:37;1.30;99.90
57026;DHT22;43961;52.940;6.834;2023-12-07T11:37:03;1.40;99.90
57026;DHT22;43961;52.940;6.834;2023-12-07T11:39:34;1.40;99.90
57026;DHT22;43961;52.940;6.834;2023-12-07T11:42:12;1.30;99.90
57026;DHT22;43961;52.940;6.834;2023-12-07T11:44:39;1.30;99.90
57026;DHT22;43961;52.940;6.834;2023-12-07T11:47:06;1.30;99.90
57026;DHT22;43961;52.940;6.834;2023-12-07T11:49:32;1.30;99.90
57026;DHT22;43961;52.940;6.834;2023-12-07T11:51:58;1.30;99.90
57026;DHT22;43961;52.940;6.834;2023-12-07T11:54:28;1.30;99.90
57026;DHT22;43961;52.940;6.834;2023-12-07T11:56:57;1.30;99.90
57026;DHT22;43961;52.940;6.834;2023-12-07T11:59:23;1.30;99.90
57026;DHT22;43961;52.940;6.834;2023-12-07T12:01:51;1.30;99.90
57026;DHT22;43961;52.940;6.834;2023-12-07T12:04:17;1.30;99.90
57026;DHT22;43961;52.940;6.834;2023-12-07T12:06:45;1.30;99.90
57026;DHT22;43961;52.940;6.834;2023-12-07T12:09:14;1.30;99.90
57026;DHT22;43961;52.940;6.834;2023-12-07T12:11:49;1.30;99.90
57026;DHT22;43961;52.940;6.834;2023-12-07T12:14:16;1.30;99.90
57026;DHT22;43961;52.940;6.834;2023-12-07T12:16:42;1.30;99.90
57026;DHT22;43961;52.940;6.834;2023-12-07T12:19:08;1.30;99.90
57026;DHT22;43961;52.940;6.834;2023-12-07T12:21:35;1.30;99.90
57026;DHT22;43961;52.940;6.834;2023-12-07T12:24:06;1.30;99.90
57026;DHT22;43961;52.940;6.834;2023-12-07T12:26:35;1.30;99.90
57026;DHT22;43961;52.940;6.834;2023-12-07T12:29:02;1.30;99.90
57026;DHT22;43961;52.940;6.834;2023-12-07T12:31:29;1.30;99.90
57026;DHT22;43961;52.940;6.834;2023-12-07T12:33:55;1.30;99.90
57026;DHT22;43961;52.940;6.834;2023-12-07T12:36:21;1.30;99.90
57026;DHT22;43961;52.940;6.834;2023-12-07T12:38:52;1.30;99.90
57026;DHT22;43961;52.940;6.834;2023-12-07T12:41:24;1.30;99.90
57026;DHT22;43961;52.940;6.834;2023-12-07T12:43:51;1.30;99.90
57026;DHT22;43961;52.940;6.834;2023-12-07T12:46:17;1.30;99.90
57026;DHT22;43961;52.940;6.834;2023-12-07T12:49:00;1.30;99.90
57026;DHT22;43961;52.940;6.834;2023-12-07T12:51:27;1.30;99.90
57026;DHT22;43961;52.940;6.834;2023-12-07T12:53:54;1.30;99.90
57026;DHT22;43961;52.940;6.834;2023-12-07T12:56:21;1.30;99.90
57026;DHT22;43961;52.940;6.834;2023-12-07T12:58:48;1.30;99.90
57026;DHT22;43961;52.940;6.834;2023-12-07T13:01:15;1.30;99.90
57026;DHT22;43961;52.940;6.834;2023-12-07T13:03:46;1.30;99.90
57026;DHT22;43961;52.940;6.834;2023-12-07T13:06:15;1.30;99.90
57026;DHT22;43961;52.940;6.834;2023-12-07T13:08:43;1.30;99.90
57026;DHT22;43961;52.940;6.834;2023-12-07T13:11:09;1.30;99.90
57026;DHT22;43961;52.940;6.834;2023-12-07T13:13:35;1.30;99.90
57026;DHT22;43961;52.940;6.834;2023-12-07T13:16:00;1.30;99.90
57026;DHT22;43961;52.940;6.834;2023-12-07T13:18:26;1.30;99.90
57026;DHT22;43961;52.940;6.834;2023-12-07T13:20:52;1.30;99.90
57026;DHT22;43961;52.940;6.834;2023-12-07T13:23:17;1.40;99.90
57026;DHT22;43961;52.940;6.834;2023-12-07T13:25:43;1.30;99.90
57026;DHT22;43961;52.940;6.834;2023-12-07T13:28:08;1.30;99.90
57026;DHT22;43961;52.940;6.834;2023-12-07T13:30:34;1.40;99.90
57026;DHT22;43961;52.940;6.834;2023-12-07T13:33:01;1.40;99.90
57026;DHT22;43961;52.940;6.834;2023-12-07T13:35:29;1.40;99.90
57026;DHT22;43961;52.940;6.834;2023-12-07T13:37:55;1.40;99.90
57026;DHT22;43961;52.940;6.834;2023-12-07T13:40:20;1.40;99.90
57026;DHT22;43961;52.940;6.834;2023-12-07T13:42:46;1.50;99.90
57026;DHT22;43961;52.940;6.834;2023-12-07T13:45:11;1.50;99.90
57026;DHT22;43961;52.940;6.834;2023-12-07T13:47:37;1.50;99.90
57026;DHT22;43961;52.940;6.834;2023-12-07T13:50:04;1.50;99.90
57026;DHT22;43961;52.940;6.834;2023-12-07T13:52:30;1.50;99.90
57026;DHT22;43961;52.940;6.834;2023-12-07T13:54:57;1.50;99.90
57026;DHT22;43961;52.940;6.834;2023-12-07T13:57:23;1.50;99.90
57026;DHT22;43961;52.940;6.834;2023-12-07T13:59:54;1.50;99.90
57026;DHT22;43961;52.940;6.834;2023-12-07T14:02:19;1.60;99.90
57026;DHT22;43961;52.940;6.834;2023-12-07T14:04:49;1.60;99.90
57026;DHT22;43961;52.940;6.834;2023-12-07T14:07:17;1.70;99.90
57026;DHT22;43961;52.940;6.834;2023-12-07T14:09:45;1.60;99.90
57026;DHT22;43961;52.940;6.834;2023-12-07T14:12:11;1.60;99.90
57026;DHT22;43961;52.940;6.834;2023-12-07T14:14:48;1.60;99.90
57026;DHT22;43961;52.940;6.834;2023-12-07T14:17:15;1.60;99.90
57026;DHT22;43961;52.940;6.834;2023-12-07T14:19:41;1.70;99.90
57026;DHT22;43961;52.940;6.834;2023-12-07T14:22:07;1.70;99.90
57026;DHT22;43961;52.940;6.834;2023-12-07T14:24:36;1.70;99.90
57026;DHT22;43961;52.940;6.834;2023-12-07T14:27:03;1.70;99.90
57026;DHT22;43961;52.940;6.834;2023-12-07T14:29:32;1.70;99.90
57026;DHT22;43961;52.940;6.834;2023-12-07T14:31:58;1.80;99.90
57026;DHT22;43961;52.940;6.834;2023-12-07T14:34:24;1.80;99.90
57026;DHT22;43961;52.940;6.834;2023-12-07T14:36:53;1.80;99.90
57026;DHT22;43961;52.940;6.834;2023-12-07T14:39:18;1.80;99.90
57026;DHT22;43961;52.940;6.834;2023-12-07T14:41:49;1.80;99.90
57026;DHT22;43961;52.940;6.834;2023-12-07T14:44:19;1.90;99.90
57026;DHT22;43961;52.940;6.834;2023-12-07T14:46:45;2.00;99.90
57026;DHT22;43961;52.940;6.834;2023-12-07T14:49:18;1.90;99.90
57026;DHT22;43961;52.940;6.834;2023-12-07T14:51:50;1.90;99.90
57026;DHT22;43961;52.940;6.834;2023-12-07T14:54:16;1.90;99.90
57026;DHT22;43961;52.940;6.834;2023-12-07T14:56:42;2.00;99.90
57026;DHT22;43961;52.940;6.834;2023-12-07T14:59:09;2.00;99.90
57026;DHT22;43961;52.940;6.834;2023-12-07T15:01:39;2.00;99.90
57026;DHT22;43961;52.940;6.834;2023-12-07T15:04:05;2.00;99.90
57026;DHT22;43961;52.940;6.834;2023-12-07T15:06:31;2.00;99.90
57026;DHT22;43961;52.940;6.834;2023-12-07T15:08:57;2.00;99.90
57026;DHT22;43961;52.940;6.834;2023-12-07T15:11:23;2.00;99.90
57026;DHT22;43961;52.940;6.834;2023-12-07T15:13:49;2.00;99.90
57026;DHT22;43961;52.940;6.834;2023-12-07T15:16:15;1.90;99.90
57026;DHT22;43961;52.940;6.834;2023-12-07T15:18:40;1.90;99.90
57026;DHT22;43961;52.940;6.834;2023-12-07T15:21:11;1.90;99.90
57026;DHT22;43961;52.940;6.834;2023-12-07T15:23:38;1.90;99.90
57026;DHT22;43961;52.940;6.834;2023-12-07T15:26:04;1.90;99.90
57026;DHT22;43961;52.940;6.834;2023-12-07T15:28:30;1.90;99.90
57026;DHT22;43961;52.940;6.834;2023-12-07T15:30:56;1.80;99.90
57026;DHT22;43961;52.940;6.834;2023-12-07T15:33:21;1.80;99.90
57026;DHT22;43961;52.940;6.834;2023-12-07T15:35:47;1.80;99.90
57026;DHT22;43961;52.940;6.834;2023-12-07T15:38:12;1.80;99.90
57026;DHT22;43961;52.940;6.834;2023-12-07T15:40:39;1.80;99.90
57026;DHT22;43961;52.940;6.834;2023-12-07T15:43:04;1.80;99.90
57026;DHT22;43961;52.940;6.834;2023-12-07T15:45:30;1.80;99.90